Αρχική σελίδα
METAR-TAF:

METAR-TAF

Αεροδρόμια :

Perryton Ochiltree County Airport

Perryton, Τέξας, Ηνωμένες Πολιτείες Αμερικής

γεωγραφικό πλάτος: 36-24N, γεωγραφικό μήκος: 100-44W, υψόμετρο: 890 μ

Παρών καιρός

Η αναφορά έγινε 27 λεπτά πριν, στις 00:55 UTC
Άνεμος 8 kt από Ν
Θερμοκρασία 15°C
Υγρασία 44%
Πίεση 1020 hPa
Ορατότητα: 16.1 χλμ
Καθαρός ουρανός

METAR: KPYX 220055Z AUTO 18008KT 10SM CLR 15/03 A3011 RMK AO2 T01510033

Χρόνος: 20:22 (01:22 UTC)


TAF: λείπει

Μετεωρολογικές αναφορές και προγνώσεις για περισσότερα από 4000 αεροδρόμια (δελτία METAR και TAF).

Οι διαθέσιμοι σταθμοί απεικονίζονται στο χάρτη με κίτρινες και κόκκινες κουκκίδες.

Μετακινήστε το ποντίκι πάνω από τις κουκκίδες για να δείτε το όνομα του σταθμού.

Στη συνέχεια, κάντε κλικ για να δείτε τις μετεωρολογικές αναφορές και τις προγνώσεις καιρού.

Για να αλλάξετε το χάρτη: κάντε κλικ στα πράσινα κουμπιά με τον μαύρο σταυρό για να ζουμάρετε, στο πράσινο κουμπί με την παύλα για να αφαιρέσετε το ζουμ ή στα πράσινα βέλη για να αντιπαραβάλλετε χάρτες.


METAR-TAF: